Air Navigation Services of Czech Republic
Airport: LKKB Updated:  22.06.2017 23:25:32  UTC
 SPECI LKKB 22.06. 23:23 ...
SPECI LKKB 222323Z VRB16G27KT 5000 +TSRA FEW014 SCT036CB SCT073 17/16 Q1015 =
 SPECI LKKB 22.06. 23:09 ...
SPECI LKKB 222309Z VRB10G36KT 9999 TSRA FEW050CB BKN093 18/16 Q1014 =
 SPECI LKKB 22.06. 23:05 ...
SPECI LKKB 222305Z VRB03KT 9999 TSRA FEW050CB BKN093 17/16 Q1012 =
 METAR LKKB 22.06. 23:00 ...
METAR LKKB 222300Z VRB05KT 9999 VCTS FEW050CB BKN093 17/16 Q1010=
 TAF LKKB 22.06. 17:00 ...
TAF LKKB 221700Z 2218/2318 29008KT CAVOK      TEMPO 2218/2304 33016G26KT 4000 TSRA SCT030CB BKN045      PROB30 TEMPO 2218/2300 33020G36KT 1400 TSGRRA BKN015CB      TEMPO 2304/2311 30012KT 8000 SHRA SCT025TCU=